createdAt,value
2019-05-25T00:02:04.131Z,1006.71
2019-05-25T00:02:44.611Z,1006.68
2019-05-25T00:03:25.040Z,1006.72
2019-05-25T00:04:06.009Z,1006.73
2019-05-25T00:04:46.402Z,1006.72
2019-05-25T00:05:26.989Z,1006.73
2019-05-25T00:06:07.495Z,1006.72
2019-05-25T00:06:47.942Z,1006.68
2019-05-25T00:07:28.320Z,1006.67
2019-05-25T00:08:08.833Z,1006.69
2019-05-25T00:08:49.267Z,1006.67
2019-05-25T00:09:29.690Z,1006.69
2019-05-25T00:10:10.186Z,1006.63
2019-05-25T00:10:50.834Z,1006.67
2019-05-25T00:11:32.302Z,1006.63
2019-05-25T00:12:12.759Z,1006.68
2019-05-25T00:12:53.226Z,1006.65
2019-05-25T00:13:33.691Z,1006.63
2019-05-25T00:14:14.155Z,1006.66
2019-05-25T00:14:54.587Z,1006.64
2019-05-25T00:20:46.973Z,1006.65
2019-05-25T00:21:32.839Z,1006.65
2019-05-25T00:22:12.857Z,1006.64
2019-05-25T00:22:53.439Z,1006.65
2019-05-25T00:23:33.955Z,1006.66
2019-05-25T00:24:14.530Z,1006.66
2019-05-25T00:24:55.029Z,1006.67
2019-05-25T00:25:35.747Z,1006.67
2019-05-25T00:26:16.377Z,1006.67
2019-05-25T00:26:56.763Z,1006.71
2019-05-25T00:27:37.249Z,1006.68
2019-05-25T00:28:17.805Z,1006.7
2019-05-25T00:28:58.252Z,1006.69
2019-05-25T00:29:38.807Z,1006.69
2019-05-25T00:30:19.358Z,1006.68
2019-05-25T00:31:00.105Z,1006.7
2019-05-25T00:31:40.610Z,1006.67
2019-05-25T00:32:21.099Z,1006.72
2019-05-25T00:33:01.593Z,1006.77
2019-05-25T00:33:41.963Z,1006.7
2019-05-25T00:34:22.352Z,1006.7
2019-05-25T00:35:02.847Z,1006.7
2019-05-25T00:35:43.260Z,1006.71
2019-05-25T00:36:23.823Z,1006.71
2019-05-25T00:37:04.291Z,1006.69
2019-05-25T00:37:44.799Z,1006.7
2019-05-25T00:38:25.277Z,1006.7
2019-05-25T00:39:05.663Z,1006.68
2019-05-25T00:39:46.028Z,1006.74
2019-05-25T00:40:26.524Z,1006.7
2019-05-25T00:41:07.066Z,1006.72
2019-05-25T00:41:47.409Z,1006.73
2019-05-25T00:42:27.931Z,1006.69
2019-05-25T00:43:08.396Z,1006.72
2019-05-25T00:43:48.748Z,1006.72
2019-05-25T00:44:29.142Z,1006.72
2019-05-25T00:45:09.589Z,1006.75
2019-05-25T00:45:49.963Z,1006.69
2019-05-25T00:46:30.357Z,1006.7
2019-05-25T00:47:10.772Z,1006.71
2019-05-25T00:47:51.194Z,1006.68
2019-05-25T00:48:31.576Z,1006.73
2019-05-25T00:49:11.991Z,1006.71
2019-05-25T00:51:10.684Z,1006.74
2019-05-25T00:51:57.924Z,1006.76
2019-05-25T00:52:38.397Z,1006.78
2019-05-25T00:53:19.089Z,1006.76
2019-05-25T00:53:59.710Z,1006.75
2019-05-25T00:54:40.207Z,1006.76
2019-05-25T00:55:20.997Z,1006.77
2019-05-25T00:56:01.184Z,1006.74
2019-05-25T00:56:41.598Z,1006.76
2019-05-25T00:57:22.066Z,1006.7
2019-05-25T00:58:02.757Z,1006.73
2019-05-25T00:58:44.061Z,1006.67
2019-05-25T00:59:24.507Z,1006.71
2019-05-25T01:00:04.928Z,1006.72
2019-05-25T01:00:45.294Z,1006.7
2019-05-25T01:01:25.750Z,1006.71
2019-05-25T01:02:06.152Z,1006.68
2019-05-25T01:02:46.759Z,1006.68
2019-05-25T01:03:27.130Z,1006.68
2019-05-25T01:05:25.250Z,1006.71
2019-05-25T01:06:05.746Z,1006.66
2019-05-25T01:06:46.196Z,1006.68
2019-05-25T01:07:26.573Z,1006.67
2019-05-25T01:08:06.988Z,1006.68
2019-05-25T01:09:27.856Z,1006.67
2019-05-25T01:10:08.236Z,1006.7
2019-05-25T01:10:48.756Z,1006.72
2019-05-25T01:11:29.199Z,1006.69
2019-05-25T01:12:09.652Z,1006.73
2019-05-25T01:12:50.134Z,1006.7
2019-05-25T01:13:30.608Z,1006.72
2019-05-25T01:14:11.099Z,1006.69
2019-05-25T01:14:51.701Z,1006.72
2019-05-25T01:15:32.140Z,1006.74
2019-05-25T01:16:52.980Z,1006.75
2019-05-25T01:17:33.446Z,1006.71
2019-05-25T01:18:13.826Z,1006.7
2019-05-25T01:18:54.330Z,1006.7
2019-05-25T01:19:34.693Z,1006.68
2019-05-25T01:20:15.194Z,1006.68
2019-05-25T01:20:55.598Z,1006.66
2019-05-25T01:21:36.054Z,1006.68
2019-05-25T01:22:16.477Z,1006.67
2019-05-25T01:22:56.970Z,1006.69
2019-05-25T01:23:37.356Z,1006.69
2019-05-25T01:24:18.947Z,1006.69
2019-05-25T01:24:59.081Z,1006.67
2019-05-25T01:25:39.513Z,1006.69
2019-05-25T01:27:00.298Z,1006.67
2019-05-25T01:27:40.725Z,1006.67
2019-05-25T01:28:21.123Z,1006.69
2019-05-25T01:29:01.559Z,1006.63
2019-05-25T01:29:41.992Z,1006.63
2019-05-25T01:30:22.398Z,1006.63
2019-05-25T01:31:02.822Z,1006.62
2019-05-25T01:31:43.213Z,1006.58
2019-05-25T01:32:23.607Z,1006.57
2019-05-25T01:33:03.983Z,1006.58
2019-05-25T01:33:44.417Z,1006.63
2019-05-25T01:36:02.431Z,1006.6
2019-05-25T01:36:43.309Z,1006.6
2019-05-25T01:37:23.704Z,1006.6
2019-05-25T01:38:04.083Z,1006.63
2019-05-25T01:39:24.924Z,1006.65
2019-05-25T01:40:05.329Z,1006.61
2019-05-25T01:40:45.735Z,1006.64
2019-05-25T01:41:26.142Z,1006.64
2019-05-25T01:42:06.578Z,1006.66
2019-05-25T01:42:47.007Z,1006.69
2019-05-25T01:43:27.412Z,1006.64
2019-05-25T01:44:07.847Z,1006.64
2019-05-25T01:44:48.305Z,1006.63
2019-05-25T01:45:28.785Z,1006.59
2019-05-25T01:46:09.196Z,1006.61
2019-05-25T01:46:49.584Z,1006.63
2019-05-25T01:47:30.011Z,1006.6
2019-05-25T01:48:10.459Z,1006.61
2019-05-25T01:48:51.284Z,1006.6
2019-05-25T01:49:31.271Z,1006.58
2019-05-25T01:50:11.683Z,1006.62
2019-05-25T01:50:52.095Z,1006.58
2019-05-25T01:52:45.505Z,1006.61
2019-05-25T01:53:25.597Z,1006.62
2019-05-25T01:54:05.942Z,1006.64
2019-05-25T01:54:58.776Z,1006.65
2019-05-25T01:55:27.094Z,1006.67
2019-05-25T01:56:48.149Z,1006.66
2019-05-25T01:57:29.022Z,1006.63
2019-05-25T01:58:10.307Z,1006.65
2019-05-25T01:58:51.125Z,1006.69
2019-05-25T01:59:31.557Z,1006.7
2019-05-25T02:00:11.820Z,1006.74
2019-05-25T02:00:52.210Z,1006.7
2019-05-25T02:01:33.079Z,1006.68
2019-05-25T02:02:14.121Z,1006.7
2019-05-25T02:02:55.395Z,1006.71
2019-05-25T02:04:16.320Z,1006.7
2019-05-25T02:04:56.902Z,1006.71
2019-05-25T02:05:37.572Z,1006.71
2019-05-25T02:09:14.391Z,1006.69
2019-05-25T02:09:55.729Z,1006.64
2019-05-25T02:10:36.215Z,1006.71
2019-05-25T02:11:16.604Z,1006.72
2019-05-25T02:11:57.070Z,1006.7
2019-05-25T02:12:37.506Z,1006.69
2019-05-25T02:13:17.922Z,1006.69
2019-05-25T02:13:58.317Z,1006.69
2019-05-25T02:15:51.994Z,1006.72
2019-05-25T02:16:32.606Z,1006.72
2019-05-25T02:17:13.029Z,1006.74
2019-05-25T02:17:53.472Z,1006.74
2019-05-25T02:18:33.881Z,1006.74
2019-05-25T02:19:14.314Z,1006.75
2019-05-25T02:19:54.768Z,1006.75
2019-05-25T02:20:35.198Z,1006.74
2019-05-25T02:22:51.373Z,1006.77
2019-05-25T02:25:17.933Z,1006.77
2019-05-25T02:27:31.290Z,1006.79
2019-05-25T02:28:11.450Z,1006.79
2019-05-25T02:28:51.870Z,1006.77
2019-05-25T02:29:32.818Z,1006.79
2019-05-25T02:30:15.222Z,1006.81
2019-05-25T02:30:55.640Z,1006.83
2019-05-25T02:31:36.063Z,1006.82
2019-05-25T02:32:16.480Z,1006.84
2019-05-25T02:32:56.865Z,1006.85
2019-05-25T02:33:37.249Z,1006.81
2019-05-25T02:34:17.653Z,1006.88
2019-05-25T02:34:58.104Z,1006.85
2019-05-25T02:35:38.536Z,1006.88
2019-05-25T02:37:36.728Z,1006.88
2019-05-25T02:38:16.923Z,1006.89
2019-05-25T02:38:57.345Z,1006.88
2019-05-25T02:39:37.817Z,1006.87
2019-05-25T02:40:18.351Z,1006.87
2019-05-25T02:40:58.727Z,1006.88
2019-05-25T02:41:39.150Z,1006.89
2019-05-25T02:42:19.533Z,1006.9
2019-05-25T02:43:00.095Z,1006.9
2019-05-25T02:43:40.440Z,1006.89
2019-05-25T02:44:20.874Z,1006.87
2019-05-25T02:45:01.438Z,1006.89
2019-05-25T02:45:41.849Z,1006.9
2019-05-25T02:46:22.266Z,1006.89
2019-05-25T02:47:02.701Z,1006.93
2019-05-25T02:47:43.147Z,1006.91
2019-05-25T02:48:23.688Z,1006.92
2019-05-25T02:49:04.117Z,1006.91
2019-05-25T02:49:44.597Z,1006.91
2019-05-25T02:50:24.962Z,1006.93
2019-05-25T02:51:05.419Z,1006.9
2019-05-25T02:51:45.863Z,1006.92
2019-05-25T02:52:26.309Z,1006.94
2019-05-25T02:53:06.768Z,1006.94
2019-05-25T02:53:47.218Z,1006.94
2019-05-25T02:54:27.691Z,1006.92
2019-05-25T02:55:08.234Z,1006.92
2019-05-25T02:55:48.740Z,1006.92
2019-05-25T02:56:29.312Z,1006.92
2019-05-25T02:57:09.642Z,1006.93
2019-05-25T02:57:50.090Z,1006.92
2019-05-25T02:58:30.546Z,1006.95
2019-05-25T02:59:11.157Z,1006.9
2019-05-25T02:59:51.611Z,1006.94
2019-05-25T03:00:32.101Z,1006.94
2019-05-25T03:01:12.674Z,1006.98
2019-05-25T03:01:53.235Z,1006.95
2019-05-25T03:02:33.878Z,1006.9
2019-05-25T03:03:14.375Z,1006.94
2019-05-25T03:03:55.315Z,1006.94
2019-05-25T03:04:36.304Z,1006.94
2019-05-25T03:05:17.024Z,1006.96
2019-05-25T03:05:57.550Z,1006.93
2019-05-25T03:06:38.217Z,1006.93
2019-05-25T03:07:18.767Z,1006.94
2019-05-25T03:07:59.315Z,1006.92
2019-05-25T03:08:39.962Z,1006.95
2019-05-25T03:09:20.396Z,1006.96
2019-05-25T03:10:00.798Z,1006.98
2019-05-25T03:12:35.422Z,1007.03
2019-05-25T03:13:16.879Z,1007.01
2019-05-25T03:13:57.263Z,1006.98
2019-05-25T03:14:37.713Z,1007.01
2019-05-25T03:15:18.138Z,1007.01
2019-05-25T03:15:58.765Z,1006.99
2019-05-25T03:16:39.191Z,1006.99
2019-05-25T03:17:19.679Z,1006.94
2019-05-25T03:18:00.227Z,1006.96
2019-05-25T03:18:40.668Z,1007.01
2019-05-25T03:19:21.046Z,1007.01
2019-05-25T03:20:01.532Z,1006.99
2019-05-25T03:20:41.960Z,1007.02
2019-05-25T03:21:22.427Z,1007.01
2019-05-25T03:22:03.159Z,1007.03
2019-05-25T03:22:43.466Z,1006.97
2019-05-25T03:23:24.016Z,1006.99
2019-05-25T03:24:04.437Z,1006.94
2019-05-25T03:24:44.865Z,1006.97
2019-05-25T03:25:25.258Z,1006.93
2019-05-25T03:26:05.728Z,1006.98
2019-05-25T03:26:46.197Z,1006.97
2019-05-25T03:27:26.714Z,1006.97
2019-05-25T03:28:47.661Z,1006.96
2019-05-25T03:29:28.019Z,1006.97
2019-05-25T03:30:08.524Z,1006.97
2019-05-25T03:30:48.925Z,1006.97
2019-05-25T03:31:29.343Z,1007
2019-05-25T03:32:09.743Z,1007.01
2019-05-25T03:32:50.158Z,1006.99
2019-05-25T03:33:30.578Z,1007.02
2019-05-25T03:34:11.012Z,1007.04
2019-05-25T03:34:51.539Z,1007.03
2019-05-25T03:35:32.386Z,1007.06
2019-05-25T03:36:12.817Z,1007.06
2019-05-25T03:36:53.208Z,1007.05
2019-05-25T03:37:33.676Z,1007.08
2019-05-25T03:39:31.365Z,1007.09
2019-05-25T03:40:11.802Z,1007.13
2019-05-25T03:40:52.192Z,1007.13
2019-05-25T03:41:32.609Z,1007.14
2019-05-25T03:42:13.163Z,1007.11
2019-05-25T03:42:53.587Z,1007.13
2019-05-25T03:43:33.962Z,1007.15
2019-05-25T03:44:14.382Z,1007.15
2019-05-25T03:44:54.819Z,1007.18
2019-05-25T03:46:15.788Z,1007.18
2019-05-25T03:46:56.265Z,1007.16
2019-05-25T03:47:36.652Z,1007.17
2019-05-25T03:49:41.017Z,1007.24
2019-05-25T03:50:25.911Z,1007.24
2019-05-25T03:51:06.311Z,1007.21
2019-05-25T03:51:46.822Z,1007.2
2019-05-25T03:52:27.290Z,1007.22
2019-05-25T03:53:07.721Z,1007.23
2019-05-25T03:53:48.205Z,1007.26
2019-05-25T03:54:28.531Z,1007.27
2019-05-25T03:55:11.168Z,1007.28
2019-05-25T03:56:04.650Z,1007.28
2019-05-25T03:56:32.102Z,1007.3
2019-05-25T03:57:12.681Z,1007.3
2019-05-25T03:57:53.108Z,1007.31
2019-05-25T03:58:33.678Z,1007.32
2019-05-25T03:59:14.178Z,1007.32
2019-05-25T03:59:54.538Z,1007.35
2019-05-25T04:00:35.087Z,1007.35
2019-05-25T04:01:15.537Z,1007.38
2019-05-25T04:01:55.936Z,1007.35
2019-05-25T04:02:36.407Z,1007.36
2019-05-25T04:03:17.599Z,1007.35
2019-05-25T04:03:58.041Z,1007.34
2019-05-25T04:04:38.541Z,1007.37
2019-05-25T04:05:18.907Z,1007.36
2019-05-25T04:05:59.360Z,1007.37
2019-05-25T04:06:39.738Z,1007.4
2019-05-25T04:07:20.197Z,1007.4
2019-05-25T04:08:00.654Z,1007.4
2019-05-25T04:08:41.055Z,1007.41
2019-05-25T04:09:21.430Z,1007.45
2019-05-25T04:10:02.141Z,1007.45
2019-05-25T04:10:42.383Z,1007.45
2019-05-25T04:11:22.778Z,1007.45
2019-05-25T04:12:03.182Z,1007.43
2019-05-25T04:12:43.617Z,1007.44
2019-05-25T04:13:24.013Z,1007.52
2019-05-25T04:14:04.918Z,1007.47
2019-05-25T04:14:45.414Z,1007.49
2019-05-25T04:15:25.997Z,1007.5
2019-05-25T04:16:06.447Z,1007.51
2019-05-25T04:16:47.009Z,1007.52
2019-05-25T04:17:27.626Z,1007.53
2019-05-25T04:18:07.984Z,1007.56
2019-05-25T04:18:48.508Z,1007.55
2019-05-25T04:19:30.400Z,1007.47
2019-05-25T04:20:10.734Z,1007.58
2019-05-25T04:20:51.091Z,1007.54
2019-05-25T04:21:31.509Z,1007.55
2019-05-25T04:22:11.915Z,1007.55
2019-05-25T04:24:25.922Z,1007.59
2019-05-25T04:25:06.891Z,1007.57
2019-05-25T04:25:47.273Z,1007.59
2019-05-25T05:08:06.757Z,1007.84
2019-05-25T05:10:38.312Z,1007.88
2019-05-25T05:11:18.672Z,1007.9
2019-05-25T05:11:59.074Z,1007.91
2019-05-25T05:12:39.602Z,1007.91
2019-05-25T05:13:20.224Z,1007.91
2019-05-25T05:14:00.652Z,1007.96
2019-05-25T05:14:41.150Z,1007.96
2019-05-25T05:16:02.276Z,1007.96
2019-05-25T05:16:42.669Z,1007.98
2019-05-25T05:17:22.988Z,1008.01
2019-05-25T05:18:03.442Z,1008
2019-05-25T05:18:43.736Z,1008.02
2019-05-25T05:19:24.125Z,1008.01
2019-05-25T05:20:04.511Z,1007.99
2019-05-25T05:20:44.902Z,1008.02
2019-05-25T05:21:25.305Z,1008.01
2019-05-25T05:22:06.192Z,1008.02
2019-05-25T05:23:26.611Z,1008.05
2019-05-25T05:24:06.990Z,1008.06
2019-05-25T05:24:47.331Z,1008.04
2019-05-25T05:25:27.799Z,1008.04
2019-05-25T05:26:08.118Z,1008.06
2019-05-25T05:26:55.578Z,1008.03
2019-05-25T05:27:28.927Z,1008.08
2019-05-25T05:28:09.368Z,1008.08
2019-05-25T05:28:49.801Z,1008.03
2019-05-25T05:31:23.007Z,1008.08
2019-05-25T05:31:58.180Z,1008.13
2019-05-25T05:32:37.310Z,1008.08
2019-05-25T05:33:17.724Z,1008.08
2019-05-25T05:33:58.233Z,1008.16
2019-05-25T05:34:38.717Z,1008.11
2019-05-25T05:35:19.129Z,1008.12
2019-05-25T05:35:59.564Z,1008.15
2019-05-25T05:36:40.045Z,1008.15
2019-05-25T05:37:20.491Z,1008.14
2019-05-25T05:38:01.022Z,1008.15
2019-05-25T05:38:41.425Z,1008.18
2019-05-25T05:39:21.866Z,1008.18
2019-05-25T05:40:02.344Z,1008.19
2019-05-25T05:40:43.263Z,1008.17
2019-05-25T05:41:23.647Z,1008.16
2019-05-25T05:42:04.076Z,1008.14
2019-05-25T05:42:44.662Z,1008.16
2019-05-25T05:43:25.511Z,1008.11
2019-05-25T05:44:06.223Z,1008.1
2019-05-25T05:44:46.722Z,1008.05
2019-05-25T05:45:27.202Z,1008.13
2019-05-25T05:46:08.495Z,1008.11
2019-05-25T05:46:48.796Z,1008.1
2019-05-25T05:47:29.378Z,1008.15
2019-05-25T05:48:09.783Z,1008.13
2019-05-25T05:48:50.252Z,1008.16
2019-05-25T05:49:30.703Z,1008.14
2019-05-25T05:50:11.296Z,1008.16
2019-05-25T05:50:51.831Z,1008.14
2019-05-25T05:51:33.452Z,1008.13
2019-05-25T05:52:14.063Z,1008.13
2019-05-25T05:52:58.978Z,1008.2
2019-05-25T05:53:40.489Z,1008.17
2019-05-25T05:54:23.007Z,1008.09
2019-05-25T05:55:03.413Z,1008.1
2019-05-25T05:55:43.834Z,1008.17
2019-05-25T05:56:24.267Z,1008.14
2019-05-25T05:57:12.073Z,1008.16
2019-05-25T05:57:45.256Z,1008.16
2019-05-25T05:58:25.727Z,1008.14
2019-05-25T05:59:06.229Z,1008.17
2019-05-25T05:59:47.006Z,1008.16
2019-05-25T06:00:27.499Z,1008.16
2019-05-25T06:01:08.032Z,1008.2
2019-05-25T06:01:48.543Z,1008.21
2019-05-25T06:02:29.037Z,1008.21
2019-05-25T06:03:09.463Z,1008.21
2019-05-25T06:03:49.845Z,1008.23
2019-05-25T06:04:31.008Z,1008.21
2019-05-25T06:05:11.844Z,1008.26
2019-05-25T06:05:53.183Z,1008.28
2019-05-25T06:06:33.545Z,1008.26
2019-05-25T06:07:14.220Z,1008.26
2019-05-25T06:07:55.016Z,1008.24
2019-05-25T06:08:35.321Z,1008.24
2019-05-25T06:09:16.033Z,1008.27
2019-05-25T06:09:56.442Z,1008.29
2019-05-25T06:10:36.959Z,1008.28
2019-05-25T06:11:17.785Z,1008.27
2019-05-25T06:12:03.826Z,1008.31
2019-05-25T06:12:44.701Z,1008.27
2019-05-25T06:13:25.225Z,1008.31
2019-05-25T06:14:05.696Z,1008.27
2019-05-25T06:14:51.686Z,1008.29
2019-05-25T06:15:32.126Z,1008.3
2019-05-25T06:16:12.523Z,1008.24
2019-05-25T06:16:52.977Z,1008.26
2019-05-25T06:17:33.392Z,1008.24
2019-05-25T06:18:13.863Z,1008.25
2019-05-25T06:18:54.361Z,1008.27
2019-05-25T06:19:34.874Z,1008.26
2019-05-25T06:20:15.888Z,1008.25
2019-05-25T06:20:56.297Z,1008.28
2019-05-25T06:21:36.656Z,1008.23
2019-05-25T06:22:17.123Z,1008.24
2019-05-25T06:22:57.938Z,1008.26
2019-05-25T06:23:38.410Z,1008.24
2019-05-25T06:24:19.670Z,1008.18
2019-05-25T06:25:00.316Z,1008.15
2019-05-25T06:25:40.708Z,1008.21
2019-05-25T06:26:21.535Z,1008.19
2019-05-25T06:27:01.981Z,1008.22
2019-05-25T06:27:42.518Z,1008.24
2019-05-25T06:28:23.363Z,1008.23
2019-05-25T06:29:03.910Z,1008.23
2019-05-25T06:29:44.637Z,1008.19
2019-05-25T06:30:25.357Z,1008.21
2019-05-25T06:31:05.907Z,1008.26
2019-05-25T06:31:46.869Z,1008.18
2019-05-25T06:32:27.607Z,1008.24
2019-05-25T06:33:08.128Z,1008.22
2019-05-25T06:33:49.239Z,1008.18
2019-05-25T06:34:29.582Z,1008.21
2019-05-25T06:35:10.396Z,1008.18
2019-05-25T06:35:50.885Z,1008.19
2019-05-25T06:36:31.752Z,1008.19
2019-05-25T06:37:12.419Z,1008.28
2019-05-25T06:38:33.898Z,1008.23
2019-05-25T06:39:14.788Z,1008.15
2019-05-25T06:39:55.526Z,1008.17
2019-05-25T06:40:36.396Z,1008.17
2019-05-25T06:41:17.234Z,1008.14
2019-05-25T06:41:59.025Z,1008.18
2019-05-25T06:42:39.549Z,1008.2
2019-05-25T06:43:20.416Z,1008.19
2019-05-25T06:44:01.114Z,1008.14
2019-05-25T06:44:41.674Z,1008.12
2019-05-25T06:45:22.672Z,1008.16
2019-05-25T06:46:03.360Z,1008.21
2019-05-25T06:46:43.910Z,1008.19
2019-05-25T06:47:24.777Z,1008.19
2019-05-25T06:48:05.736Z,1008.22
2019-05-25T06:48:47.548Z,1008.2
2019-05-25T06:49:28.743Z,1008.21
2019-05-25T06:50:09.265Z,1008.2
2019-05-25T06:50:50.285Z,1008.2
2019-05-25T06:55:28.363Z,1008.17
2019-05-25T07:02:05.872Z,1008.2
2019-05-25T07:02:45.802Z,1008.18
2019-05-25T07:03:26.242Z,1008.22
2019-05-25T07:04:07.100Z,1008.22
2019-05-25T07:04:47.099Z,1008.2
2019-05-25T07:06:08.141Z,1008.23
2019-05-25T07:06:51.899Z,1008.22
2019-05-25T07:07:32.250Z,1008.23
2019-05-25T07:08:12.689Z,1008.23
2019-05-25T07:08:52.908Z,1008.24
2019-05-25T07:09:33.396Z,1008.22
2019-05-25T07:10:15.733Z,1008.27
2019-05-25T07:10:56.147Z,1008.29
2019-05-25T07:11:36.605Z,1008.26
2019-05-25T07:12:17.059Z,1008.26
2019-05-25T07:13:37.795Z,1008.27
2019-05-25T07:14:20.216Z,1008.26
2019-05-25T07:15:01.341Z,1008.27
2019-05-25T07:15:41.943Z,1008.26
2019-05-25T07:16:22.163Z,1008.29
2019-05-25T07:17:02.536Z,1008.3
2019-05-25T07:17:43.274Z,1008.32
2019-05-25T07:18:25.560Z,1008.31
2019-05-25T07:19:05.965Z,1008.29
2019-05-25T07:19:46.892Z,1008.34
2019-05-25T07:21:08.261Z,1008.34
2019-05-25T07:21:48.931Z,1008.38
2019-05-25T07:22:29.629Z,1008.36
2019-05-25T07:23:11.290Z,1008.34
2019-05-25T07:32:05.039Z,1008.33
2019-05-25T07:35:34.781Z,1008.39
2019-05-25T07:36:15.073Z,1008.39
2019-05-25T07:36:55.533Z,1008.4
2019-05-25T07:37:35.894Z,1008.37
2019-05-25T07:38:16.383Z,1008.43
2019-05-25T07:38:57.037Z,1008.4
2019-05-25T07:39:37.223Z,1008.39
2019-05-25T07:40:17.621Z,1008.37
2019-05-25T07:40:58.059Z,1008.38
2019-05-25T07:41:38.405Z,1008.33
2019-05-25T07:42:20.027Z,1008.35
2019-05-25T07:43:39.553Z,1008.34
2019-05-25T07:44:20.169Z,1008.34
2019-05-25T07:45:00.529Z,1008.32
2019-05-25T07:47:19.493Z,1008.34
2019-05-25T07:47:59.807Z,1008.37
2019-05-25T07:48:40.158Z,1008.36
2019-05-25T07:49:20.543Z,1008.39
2019-05-25T07:50:00.895Z,1008.41
2019-05-25T07:50:41.279Z,1008.38
2019-05-25T07:51:21.698Z,1008.43
2019-05-25T07:52:02.903Z,1008.38
2019-05-25T07:52:42.514Z,1008.39
2019-05-25T07:53:23.085Z,1008.37
2019-05-25T07:54:03.446Z,1008.4
2019-05-25T07:54:43.848Z,1008.37
2019-05-25T07:55:25.148Z,1008.43
2019-05-25T07:56:05.540Z,1008.45
2019-05-25T07:56:45.936Z,1008.44
2019-05-25T07:57:28.636Z,1008.42
2019-05-25T07:58:17.104Z,1008.43
2019-05-25T07:58:54.646Z,1008.46
2019-05-25T07:59:35.003Z,1008.48
2019-05-25T08:00:17.641Z,1008.45
2019-05-25T08:00:58.954Z,1008.45
2019-05-25T08:01:40.143Z,1008.45
2019-05-25T08:02:20.618Z,1008.49
2019-05-25T08:03:01.623Z,1008.48
2019-05-25T08:04:24.594Z,1008.47
2019-05-25T08:05:04.929Z,1008.48
2019-05-25T08:05:45.329Z,1008.5
2019-05-25T08:06:25.689Z,1008.54
2019-05-25T08:07:06.079Z,1008.52
2019-05-25T08:07:46.491Z,1008.47
2019-05-25T08:08:26.840Z,1008.49
2019-05-25T08:09:07.308Z,1008.52
2019-05-25T08:09:48.262Z,1008.5
2019-05-25T08:10:28.630Z,1008.5
2019-05-25T08:11:09.105Z,1008.5
2019-05-25T08:11:49.400Z,1008.52
2019-05-25T08:12:29.873Z,1008.51
2019-05-25T08:13:10.317Z,1008.53
2019-05-25T08:13:50.604Z,1008.52
2019-05-25T08:14:31.068Z,1008.5
2019-05-25T08:15:11.414Z,1008.48
2019-05-25T08:15:52.800Z,1008.49
2019-05-25T08:16:36.381Z,1008.49
2019-05-25T08:17:16.820Z,1008.48
2019-05-25T08:17:57.202Z,1008.52
2019-05-25T08:18:37.562Z,1008.52
2019-05-25T08:19:18.163Z,1008.5
2019-05-25T08:19:58.513Z,1008.49
2019-05-25T08:20:39.115Z,1008.5
2019-05-25T08:21:19.479Z,1008.47
2019-05-25T08:21:59.812Z,1008.53
2019-05-25T08:22:40.187Z,1008.53
2019-05-25T08:23:20.605Z,1008.51
2019-05-25T08:24:01.288Z,1008.48
2019-05-25T08:24:41.377Z,1008.49
2019-05-25T08:25:21.779Z,1008.54
2019-05-25T08:26:02.172Z,1008.47
2019-05-25T08:26:42.557Z,1008.5
2019-05-25T08:27:23.001Z,1008.49
2019-05-25T08:28:03.415Z,1008.48
2019-05-25T08:28:43.807Z,1008.49
2019-05-25T08:30:04.628Z,1008.47
2019-05-25T08:30:45.067Z,1008.46
2019-05-25T08:31:25.624Z,1008.48
2019-05-25T08:32:06.217Z,1008.49
2019-05-25T08:32:46.646Z,1008.42
2019-05-25T08:33:27.671Z,1008.56
2019-05-25T08:34:08.080Z,1008.49
2019-05-25T08:34:48.729Z,1008.49
2019-05-25T08:35:29.343Z,1008.52
2019-05-25T08:36:09.793Z,1008.47
2019-05-25T08:36:50.235Z,1008.47
2019-05-25T08:37:30.663Z,1008.47
2019-05-25T08:38:11.131Z,1008.54
2019-05-25T08:38:54.615Z,1008.53
2019-05-25T08:39:31.847Z,1008.52
2019-05-25T08:40:12.225Z,1008.47
2019-05-25T08:40:52.622Z,1008.48
2019-05-25T08:41:34.951Z,1008.56
2019-05-25T08:42:15.342Z,1008.48
2019-05-25T08:42:55.753Z,1008.54
2019-05-25T08:43:36.130Z,1008.54
2019-05-25T08:44:16.562Z,1008.53
2019-05-25T08:44:57.084Z,1008.56
2019-05-25T08:45:37.329Z,1008.55
2019-05-25T08:46:17.775Z,1008.57
2019-05-25T08:47:38.613Z,1008.56
2019-05-25T08:48:19.140Z,1008.59
2019-05-25T08:48:59.497Z,1008.61
2019-05-25T08:49:39.919Z,1008.56
2019-05-25T08:50:20.324Z,1008.59
2019-05-25T08:51:00.783Z,1008.6
2019-05-25T08:51:41.148Z,1008.61
2019-05-25T08:52:21.529Z,1008.63
2019-05-25T08:53:01.921Z,1008.64
2019-05-25T08:53:43.455Z,1008.6
2019-05-25T08:54:22.762Z,1008.64
2019-05-25T08:55:03.164Z,1008.63
2019-05-25T08:55:43.572Z,1008.59
2019-05-25T08:56:23.982Z,1008.56
2019-05-25T08:57:04.993Z,1008.59
2019-05-25T08:57:45.643Z,1008.57
2019-05-25T08:58:28.149Z,1008.55
2019-05-25T08:59:09.979Z,1008.56
2019-05-25T08:59:49.905Z,1008.57
2019-05-25T09:00:30.244Z,1008.58
2019-05-25T09:01:11.436Z,1008.53
2019-05-25T09:01:51.553Z,1008.6
2019-05-25T09:02:31.818Z,1008.57
2019-05-25T09:03:12.270Z,1008.54
2019-05-25T09:03:52.731Z,1008.56
2019-05-25T09:05:13.440Z,1008.58
2019-05-25T09:05:54.128Z,1008.57
2019-05-25T09:06:34.529Z,1008.6
2019-05-25T09:07:14.943Z,1008.6
2019-05-25T09:07:55.389Z,1008.63
2019-05-25T09:08:35.945Z,1008.55
2019-05-25T09:09:16.311Z,1008.6
2019-05-25T09:09:56.590Z,1008.61
2019-05-25T09:10:37.013Z,1008.6
2019-05-25T09:11:17.603Z,1008.58
2019-05-25T09:11:58.782Z,1008.57
2019-05-25T09:12:41.164Z,1008.58
2019-05-25T09:13:21.547Z,1008.58
2019-05-25T09:14:01.918Z,1008.57
2019-05-25T09:14:42.368Z,1008.57
2019-05-25T09:15:23.757Z,1008.58
2019-05-25T09:16:04.285Z,1008.57
2019-05-25T09:16:44.712Z,1008.59
2019-05-25T09:17:25.310Z,1008.57
2019-05-25T09:18:05.504Z,1008.54
2019-05-25T09:18:45.874Z,1008.52
2019-05-25T09:19:26.318Z,1008.55
2019-05-25T09:20:06.720Z,1008.51
2019-05-25T09:20:47.116Z,1008.51
2019-05-25T09:21:27.583Z,1008.51
2019-05-25T09:22:07.926Z,1008.49
2019-05-25T09:22:48.390Z,1008.51
2019-05-25T09:23:28.784Z,1008.54
2019-05-25T09:24:09.194Z,1008.55
2019-05-25T09:24:49.582Z,1008.54
2019-05-25T09:25:30.264Z,1008.51
2019-05-25T09:26:13.326Z,1008.54
2019-05-25T09:26:50.972Z,1008.53
2019-05-25T09:28:11.776Z,1008.54
2019-05-25T09:29:03.803Z,1008.52
2019-05-25T09:29:34.991Z,1008.54
2019-05-25T09:30:15.397Z,1008.56
2019-05-25T09:30:55.786Z,1008.54
2019-05-25T09:31:36.827Z,1008.55
2019-05-25T09:32:17.181Z,1008.51
2019-05-25T09:32:58.267Z,1008.56
2019-05-25T09:33:38.626Z,1008.56
2019-05-25T09:34:19.063Z,1008.58
2019-05-25T09:34:59.455Z,1008.55
2019-05-25T09:35:39.846Z,1008.57
2019-05-25T09:36:20.234Z,1008.59
2019-05-25T09:37:00.645Z,1008.6
2019-05-25T09:37:41.252Z,1008.62
2019-05-25T09:38:21.585Z,1008.62
2019-05-25T09:39:01.967Z,1008.63
2019-05-25T09:39:42.548Z,1008.61
2019-05-25T09:41:03.582Z,1008.58
2019-05-25T09:41:44.021Z,1008.59
2019-05-25T09:42:24.318Z,1008.57
2019-05-25T09:43:04.751Z,1008.58
2019-05-25T09:43:45.132Z,1008.6
2019-05-25T09:44:25.602Z,1008.57
2019-05-25T09:45:06.200Z,1008.61
2019-05-25T09:45:46.497Z,1008.59
2019-05-25T09:46:26.889Z,1008.58
2019-05-25T09:47:08.160Z,1008.62
2019-05-25T09:47:48.982Z,1008.57
2019-05-25T09:48:29.836Z,1008.59
2019-05-25T09:49:10.447Z,1008.58
2019-05-25T09:49:51.052Z,1008.59
2019-05-25T09:50:31.417Z,1008.57
2019-05-25T09:51:19.038Z,1008.55
2019-05-25T09:51:52.378Z,1008.57
2019-05-25T09:52:33.173Z,1008.54
2019-05-25T09:53:13.705Z,1008.57
2019-05-25T09:53:54.961Z,1008.56
2019-05-25T09:54:35.469Z,1008.54
2019-05-25T09:55:25.895Z,1008.54
2019-05-25T09:56:06.219Z,1008.55
2019-05-25T09:56:46.632Z,1008.53
2019-05-25T09:57:27.073Z,1008.52
2019-05-25T09:58:07.708Z,1008.54
2019-05-25T09:58:48.125Z,1008.59
2019-05-25T09:59:30.575Z,1008.56
2019-05-25T10:00:12.155Z,1008.58
2019-05-25T10:00:52.597Z,1008.54
2019-05-25T10:01:33.006Z,1008.53
2019-05-25T10:02:13.376Z,1008.54
2019-05-25T10:02:53.831Z,1008.58
2019-05-25T10:03:34.593Z,1008.57
2019-05-25T10:04:15.145Z,1008.55